createdAt,value
2023-05-03T00:01:19.147Z,100.00
2023-05-03T00:03:45.947Z,100.00
2023-05-03T00:06:16.271Z,100.00
2023-05-03T00:08:43.282Z,100.00
2023-05-03T00:11:10.358Z,100.00
2023-05-03T00:13:37.778Z,100.00
2023-05-03T00:16:04.779Z,100.00
2023-05-03T00:18:32.056Z,100.00
2023-05-03T00:20:59.746Z,100.00
2023-05-03T00:23:27.910Z,100.00
2023-05-03T00:25:56.846Z,100.00
2023-05-03T00:28:29.105Z,100.00
2023-05-03T00:31:09.617Z,100.00
2023-05-03T00:33:37.539Z,100.00
2023-05-03T00:36:09.126Z,100.00
2023-05-03T00:38:35.989Z,100.00
2023-05-03T00:41:03.274Z,100.00
2023-05-03T00:43:29.963Z,100.00
2023-05-03T00:46:12.428Z,100.00
2023-05-03T00:48:43.115Z,100.00
2023-05-03T00:51:14.279Z,100.00
2023-05-03T00:53:42.181Z,100.00
2023-05-03T00:56:09.641Z,100.00
2023-05-03T00:58:40.029Z,100.00
2023-05-03T01:01:10.298Z,100.00
2023-05-03T01:03:41.413Z,100.00
2023-05-03T01:06:34.531Z,100.00
2023-05-03T01:09:03.696Z,100.00
2023-05-03T01:11:32.879Z,100.00
2023-05-03T01:14:08.949Z,100.00
2023-05-03T01:16:47.807Z,100.00
2023-05-03T01:19:26.515Z,100.00
2023-05-03T01:22:03.131Z,100.00
2023-05-03T01:24:32.105Z,100.00
2023-05-03T01:26:59.336Z,100.00
2023-05-03T01:29:25.804Z,100.00
2023-05-03T01:32:01.885Z,100.00
2023-05-03T01:34:38.001Z,100.00
2023-05-03T01:37:05.555Z,100.00
2023-05-03T01:39:42.033Z,100.00
2023-05-03T01:42:08.590Z,100.00
2023-05-03T01:44:36.546Z,100.00
2023-05-03T01:47:04.023Z,100.00
2023-05-03T01:49:31.111Z,100.00
2023-05-03T01:51:57.618Z,100.00
2023-05-03T01:54:24.106Z,100.00
2023-05-03T01:56:50.655Z,100.00
2023-05-03T01:59:17.230Z,100.00
2023-05-03T02:01:43.733Z,100.00
2023-05-03T02:04:11.163Z,100.00
2023-05-03T02:06:37.777Z,100.00
2023-05-03T02:09:04.318Z,100.00
2023-05-03T02:11:32.847Z,100.00
2023-05-03T02:13:59.292Z,100.00
2023-05-03T02:16:26.396Z,100.00
2023-05-03T02:18:54.416Z,100.00
2023-05-03T02:21:20.933Z,100.00
2023-05-03T02:23:47.381Z,100.00
2023-05-03T02:26:13.860Z,100.00
2023-05-03T02:28:41.355Z,100.00
2023-05-03T02:31:07.996Z,100.00
2023-05-03T02:33:34.622Z,100.00
2023-05-03T02:36:01.303Z,100.00
2023-05-03T02:38:29.829Z,100.00
2023-05-03T02:40:56.331Z,100.00
2023-05-03T02:43:28.054Z,100.00
2023-05-03T02:45:54.540Z,100.00
2023-05-03T02:48:21.042Z,100.00
2023-05-03T02:50:47.496Z,100.00
2023-05-03T02:53:14.078Z,100.00
2023-05-03T02:55:40.772Z,100.00
2023-05-03T02:58:07.670Z,100.00
2023-05-03T03:00:34.516Z,100.00
2023-05-03T03:03:01.194Z,100.00
2023-05-03T03:05:27.870Z,100.00
2023-05-03T03:07:56.334Z,100.00
2023-05-03T03:10:22.997Z,100.00
2023-05-03T03:12:49.632Z,100.00
2023-05-03T03:15:16.112Z,100.00
2023-05-03T03:17:42.833Z,100.00
2023-05-03T03:20:13.365Z,100.00
2023-05-03T03:22:40.114Z,100.00
2023-05-03T03:25:07.269Z,100.00
2023-05-03T03:27:33.851Z,100.00
2023-05-03T03:30:00.691Z,100.00
2023-05-03T03:32:27.584Z,100.00
2023-05-03T03:34:54.177Z,100.00
2023-05-03T03:37:23.213Z,100.00
2023-05-03T03:39:49.959Z,100.00
2023-05-03T03:42:18.470Z,100.00
2023-05-03T03:44:50.061Z,100.00
2023-05-03T03:47:16.957Z,100.00
2023-05-03T03:49:44.906Z,100.00
2023-05-03T03:52:11.758Z,100.00
2023-05-03T03:54:38.252Z,100.00
2023-05-03T03:57:05.088Z,100.00
2023-05-03T03:59:31.582Z,100.00
2023-05-03T04:01:58.128Z,100.00
2023-05-03T04:04:24.890Z,100.00
2023-05-03T04:06:51.715Z,100.00
2023-05-03T04:09:18.374Z,100.00
2023-05-03T04:11:51.900Z,100.00
2023-05-03T04:14:18.476Z,100.00
2023-05-03T04:16:45.034Z,100.00
2023-05-03T04:19:11.557Z,100.00
2023-05-03T04:21:38.041Z,100.00
2023-05-03T04:24:06.211Z,100.00
2023-05-03T04:26:33.551Z,100.00
2023-05-03T04:29:00.075Z,100.00
2023-05-03T04:31:27.065Z,100.00
2023-05-03T04:33:53.728Z,100.00
2023-05-03T04:36:25.572Z,100.00
2023-05-03T04:38:53.025Z,100.00
2023-05-03T04:41:19.756Z,100.00
2023-05-03T04:43:46.208Z,100.00
2023-05-03T04:46:13.835Z,100.00
2023-05-03T04:48:40.326Z,100.00
2023-05-03T04:51:10.955Z,100.00
2023-05-03T04:53:37.448Z,100.00
2023-05-03T04:56:04.182Z,100.00
2023-05-03T04:58:44.480Z,100.00
2023-05-03T05:01:11.119Z,100.00
2023-05-03T05:03:42.802Z,100.00
2023-05-03T05:06:11.596Z,100.00
2023-05-03T05:08:40.256Z,100.00
2023-05-03T05:11:06.727Z,100.00
2023-05-03T05:13:33.264Z,100.00
2023-05-03T05:15:59.735Z,100.00
2023-05-03T05:18:26.518Z,100.00
2023-05-03T05:20:54.300Z,95.51
2023-05-03T05:23:20.781Z,88.52
2023-05-03T05:25:47.365Z,85.67
2023-05-03T05:28:13.839Z,83.96
2023-05-03T05:30:40.360Z,87.17
2023-05-03T05:33:07.046Z,78.95
2023-05-03T05:35:33.763Z,74.79
2023-05-03T05:38:02.416Z,71.64
2023-05-03T05:40:28.962Z,69.96
2023-05-03T05:43:33.015Z,71.17
2023-05-03T05:45:59.673Z,69.90
2023-05-03T05:48:27.260Z,68.02
2023-05-03T05:50:53.700Z,65.66
2023-05-03T05:53:20.557Z,65.44
2023-05-03T05:55:47.143Z,67.03
2023-05-03T05:58:13.947Z,70.07
2023-05-03T06:00:41.158Z,72.66
2023-05-03T06:03:07.990Z,74.18
2023-05-03T06:05:34.547Z,74.65
2023-05-03T06:08:01.230Z,79.22
2023-05-03T06:10:27.805Z,77.18
2023-05-03T06:12:54.312Z,75.22
2023-05-03T06:15:30.124Z,70.77
2023-05-03T06:17:56.636Z,69.48
2023-05-03T06:20:24.445Z,68.38
2023-05-03T06:22:52.452Z,70.55
2023-05-03T06:25:19.072Z,67.61
2023-05-03T06:27:45.728Z,67.34
2023-05-03T06:30:12.886Z,66.91
2023-05-03T06:32:42.017Z,65.63
2023-05-03T06:35:09.432Z,67.07
2023-05-03T06:37:36.515Z,67.26
2023-05-03T06:40:03.406Z,63.82
2023-05-03T06:42:30.187Z,67.17
2023-05-03T06:44:58.772Z,68.24
2023-05-03T06:47:25.238Z,69.18
2023-05-03T06:49:52.756Z,67.63
2023-05-03T06:52:19.244Z,62.70
2023-05-03T06:54:45.835Z,61.17
2023-05-03T06:57:12.396Z,59.69
2023-05-03T06:59:38.907Z,59.65
2023-05-03T07:02:07.289Z,58.90
2023-05-03T07:04:33.842Z,55.36
2023-05-03T07:07:01.849Z,53.54
2023-05-03T07:09:42.018Z,54.63
2023-05-03T07:12:11.528Z,55.38
2023-05-03T07:14:39.642Z,53.82
2023-05-03T07:17:06.368Z,53.90
2023-05-03T07:20:06.689Z,53.27
2023-05-03T07:22:33.168Z,52.61
2023-05-03T07:24:59.982Z,53.21
2023-05-03T07:27:26.932Z,54.03
2023-05-03T07:29:53.586Z,51.72
2023-05-03T07:32:20.235Z,53.71
2023-05-03T07:34:46.745Z,51.04
2023-05-03T07:37:13.241Z,52.24
2023-05-03T07:39:42.143Z,51.66
2023-05-03T07:42:08.689Z,51.70
2023-05-03T07:44:35.301Z,51.74
2023-05-03T07:47:01.764Z,50.77
2023-05-03T07:49:28.431Z,54.23
2023-05-03T07:51:54.935Z,53.86
2023-05-03T07:54:21.461Z,53.85
2023-05-03T07:56:47.977Z,53.73
2023-05-03T07:59:20.455Z,53.15
2023-05-03T08:01:47.024Z,51.80
2023-05-03T08:04:14.288Z,51.65
2023-05-03T08:06:42.670Z,53.28
2023-05-03T08:09:09.449Z,53.20
2023-05-03T08:11:35.998Z,51.71
2023-05-03T08:14:02.827Z,53.17
2023-05-03T08:16:29.427Z,49.59
2023-05-03T08:19:02.697Z,55.13
2023-05-03T08:21:30.357Z,53.07
2023-05-03T08:23:56.938Z,55.55
2023-05-03T08:26:24.320Z,56.42
2023-05-03T08:28:51.054Z,54.79
2023-05-03T08:31:18.035Z,53.80
2023-05-03T08:33:44.593Z,56.10
2023-05-03T08:36:11.122Z,54.84
2023-05-03T08:38:41.154Z,54.68
2023-05-03T08:41:33.794Z,56.14
2023-05-03T08:44:01.345Z,55.93
2023-05-03T08:46:28.996Z,57.59
2023-05-03T08:48:56.125Z,54.54
2023-05-03T08:51:24.404Z,55.12
2023-05-03T08:53:51.386Z,55.55
2023-05-03T08:56:42.639Z,56.94
2023-05-03T08:59:11.679Z,56.26
2023-05-03T09:01:42.039Z,57.44
2023-05-03T09:04:11.799Z,57.80
2023-05-03T09:06:39.048Z,56.80
2023-05-03T09:09:08.028Z,54.11
2023-05-03T09:11:37.872Z,52.21
2023-05-03T09:14:18.779Z,55.90
2023-05-03T09:16:46.712Z,54.50
2023-05-03T09:19:15.805Z,55.46
2023-05-03T09:21:44.545Z,56.39
2023-05-03T09:24:16.423Z,57.60
2023-05-03T09:26:44.141Z,58.30
2023-05-03T09:29:10.799Z,56.31
2023-05-03T09:31:37.810Z,57.07
2023-05-03T09:34:22.715Z,55.02
2023-05-03T09:36:49.264Z,56.93
2023-05-03T09:39:19.863Z,58.53
2023-05-03T09:41:46.866Z,58.01
2023-05-03T09:44:13.622Z,57.85
2023-05-03T09:46:40.308Z,56.37
2023-05-03T09:49:07.238Z,54.81
2023-05-03T09:51:35.698Z,52.45
2023-05-03T09:54:03.571Z,53.41
2023-05-03T09:56:31.165Z,53.15
2023-05-03T09:59:14.060Z,51.78
2023-05-03T10:01:40.635Z,50.64
2023-05-03T10:04:08.144Z,50.19
2023-05-03T10:06:44.045Z,48.46
2023-05-03T10:09:31.330Z,48.54
2023-05-03T10:12:00.355Z,50.12
2023-05-03T10:14:28.316Z,52.13
2023-05-03T10:17:01.180Z,53.30
2023-05-03T10:19:42.140Z,54.70
2023-05-03T10:22:10.906Z,55.23
2023-05-03T10:24:59.926Z,52.45
2023-05-03T10:27:41.408Z,51.57
2023-05-03T10:30:09.443Z,51.72
2023-05-03T10:32:43.320Z,51.93
2023-05-03T10:35:13.981Z,51.55
2023-05-03T10:37:42.749Z,51.66
2023-05-03T10:40:14.162Z,51.89
2023-05-03T10:42:44.391Z,52.69
2023-05-03T10:45:26.668Z,48.67
2023-05-03T10:48:16.629Z,48.59
2023-05-03T10:50:43.287Z,50.78
2023-05-03T10:53:37.247Z,52.93
2023-05-03T10:56:12.289Z,51.27
2023-05-03T10:58:44.186Z,47.38
2023-05-03T11:01:13.192Z,48.62
2023-05-03T11:03:54.432Z,50.18
2023-05-03T11:06:28.095Z,44.64
2023-05-03T11:08:54.838Z,47.83
2023-05-03T11:11:22.407Z,45.40
2023-05-03T11:13:50.846Z,45.73
2023-05-03T11:16:17.669Z,46.77
2023-05-03T11:18:45.390Z,46.58
2023-05-03T11:21:12.727Z,43.60
2023-05-03T11:23:39.794Z,45.95
2023-05-03T11:26:06.950Z,46.27
2023-05-03T11:28:33.472Z,44.01
2023-05-03T11:31:09.385Z,43.89
2023-05-03T11:33:40.252Z,44.57
2023-05-03T11:36:09.522Z,45.87
2023-05-03T11:38:39.513Z,46.17
2023-05-03T11:41:16.655Z,45.74
2023-05-03T11:43:45.533Z,45.44
2023-05-03T11:46:17.892Z,42.77
2023-05-03T11:48:45.271Z,43.67
2023-05-03T11:51:13.806Z,43.63
2023-05-03T11:53:42.823Z,44.87
2023-05-03T11:56:18.913Z,43.28
2023-05-03T11:59:00.300Z,41.76
2023-05-03T12:01:31.044Z,42.46
2023-05-03T12:04:00.203Z,44.66
2023-05-03T12:06:28.850Z,43.24
2023-05-03T12:08:56.822Z,44.56
2023-05-03T12:11:26.889Z,40.64
2023-05-03T12:13:59.202Z,41.12
2023-05-03T12:16:26.346Z,41.30
2023-05-03T12:19:02.731Z,40.25
2023-05-03T12:24:20.658Z,42.06
2023-05-03T12:27:02.795Z,41.99
2023-05-03T12:29:34.602Z,42.16
2023-05-03T12:32:03.453Z,40.55
2023-05-03T12:34:35.088Z,41.40
2023-05-03T12:37:04.748Z,42.74
2023-05-03T12:39:33.441Z,43.28
2023-05-03T12:44:35.189Z,41.48
2023-05-03T12:47:02.754Z,42.10
2023-05-03T12:49:33.169Z,41.69
2023-05-03T12:54:33.381Z,41.77
2023-05-03T12:57:08.252Z,42.82
2023-05-03T12:59:42.399Z,40.80
2023-05-03T13:07:16.965Z,43.19
2023-05-03T13:12:20.658Z,39.62
2023-05-03T13:14:54.900Z,39.58
2023-05-03T13:17:22.795Z,40.16
2023-05-03T13:19:51.407Z,40.11
2023-05-03T13:22:19.107Z,40.26
2023-05-03T13:24:47.052Z,41.45
2023-05-03T13:27:13.996Z,40.46
2023-05-03T13:29:40.934Z,42.13
2023-05-03T13:32:08.548Z,40.16
2023-05-03T13:34:35.577Z,40.91
2023-05-03T13:37:02.893Z,40.17
2023-05-03T13:39:29.572Z,41.01
2023-05-03T13:41:58.052Z,41.54
2023-05-03T13:44:25.543Z,40.84
2023-05-03T13:46:54.344Z,44.71
2023-05-03T13:49:21.492Z,41.84
2023-05-03T13:51:48.271Z,39.82
2023-05-03T13:54:14.840Z,39.20
2023-05-03T13:56:42.929Z,38.37
2023-05-03T13:59:14.020Z,37.99
2023-05-03T14:01:43.043Z,38.62
2023-05-03T14:04:10.211Z,39.25
2023-05-03T14:06:40.061Z,38.83
2023-05-03T14:09:07.689Z,39.49
2023-05-03T14:11:34.296Z,37.44
2023-05-03T14:14:10.100Z,38.53
2023-05-03T14:16:41.548Z,38.93
2023-05-03T14:19:10.792Z,38.81
2023-05-03T14:21:38.165Z,37.99
2023-05-03T14:24:11.564Z,37.38
2023-05-03T14:26:39.120Z,37.91
2023-05-03T14:29:07.811Z,37.92
2023-05-03T14:31:43.463Z,38.91
2023-05-03T14:34:12.242Z,40.26
2023-05-03T14:36:43.633Z,37.96
2023-05-03T14:39:10.951Z,39.47
2023-05-03T14:41:37.438Z,39.29
2023-05-03T14:44:04.044Z,39.32
2023-05-03T14:46:32.570Z,38.41
2023-05-03T14:48:59.441Z,37.08
2023-05-03T14:51:25.977Z,37.53
2023-05-03T14:53:52.662Z,36.20
2023-05-03T14:56:19.285Z,36.82
2023-05-03T14:58:48.963Z,36.43
2023-05-03T15:01:20.356Z,36.82
2023-05-03T15:03:46.970Z,36.98
2023-05-03T15:06:13.525Z,38.17
2023-05-03T15:08:41.372Z,38.04
2023-05-03T15:11:08.152Z,37.23
2023-05-03T15:13:35.107Z,36.84
2023-05-03T15:16:01.783Z,35.77
2023-05-03T15:18:28.441Z,36.70
2023-05-03T15:20:54.882Z,37.52
2023-05-03T15:23:23.439Z,37.02
2023-05-03T15:25:56.352Z,35.86
2023-05-03T15:28:29.010Z,36.13
2023-05-03T15:31:02.475Z,36.67
2023-05-03T15:33:29.007Z,38.50
2023-05-03T15:36:02.915Z,38.34
2023-05-03T15:38:31.399Z,37.31
2023-05-03T15:40:57.935Z,37.17
2023-05-03T15:43:25.635Z,37.92
2023-05-03T15:45:53.382Z,35.99
2023-05-03T15:48:19.904Z,36.17
2023-05-03T15:50:47.697Z,36.55
2023-05-03T15:53:22.476Z,37.21
2023-05-03T15:55:57.529Z,36.81
2023-05-03T15:58:26.436Z,35.88
2023-05-03T16:00:55.513Z,37.09
2023-05-03T16:03:29.854Z,36.57
2023-05-03T16:05:56.925Z,34.60
2023-05-03T16:08:23.414Z,35.88
2023-05-03T16:11:08.092Z,36.14
2023-05-03T16:13:35.021Z,35.28
2023-05-03T16:16:03.130Z,36.92
2023-05-03T16:18:31.966Z,36.18
2023-05-03T16:20:58.562Z,36.12
2023-05-03T16:23:30.221Z,36.49
2023-05-03T16:25:58.764Z,34.97
2023-05-03T16:28:25.296Z,34.70
2023-05-03T16:30:51.856Z,36.49
2023-05-03T16:33:21.570Z,36.34
2023-05-03T16:35:48.070Z,36.18
2023-05-03T16:38:14.568Z,36.93
2023-05-03T16:41:00.785Z,34.60
2023-05-03T16:43:27.317Z,34.92
2023-05-03T16:46:00.893Z,34.40
2023-05-03T16:48:38.539Z,36.37
2023-05-03T16:51:05.068Z,38.48
2023-05-03T16:53:31.600Z,38.67
2023-05-03T16:55:58.334Z,39.44
2023-05-03T16:58:24.782Z,38.21
2023-05-03T17:00:51.357Z,38.65
2023-05-03T17:03:18.183Z,39.54
2023-05-03T17:05:44.803Z,38.62
2023-05-03T17:08:12.019Z,37.63
2023-05-03T17:10:39.228Z,39.87
2023-05-03T17:13:09.337Z,39.35
2023-05-03T17:15:36.693Z,39.29
2023-05-03T17:18:09.259Z,40.19
2023-05-03T17:20:36.909Z,41.72
2023-05-03T17:23:04.823Z,42.10
2023-05-03T17:25:31.486Z,41.92
2023-05-03T17:27:58.027Z,43.16
2023-05-03T17:30:26.650Z,43.55
2023-05-03T17:33:02.463Z,42.70
2023-05-03T17:35:28.975Z,43.79
2023-05-03T17:37:57.048Z,44.58
2023-05-03T17:40:23.584Z,44.84
2023-05-03T17:42:50.116Z,45.09
2023-05-03T17:45:20.816Z,45.51
2023-05-03T17:47:47.633Z,46.00
2023-05-03T17:50:20.894Z,46.55
2023-05-03T17:52:57.918Z,46.38
2023-05-03T17:55:30.600Z,47.22
2023-05-03T17:57:58.162Z,47.81
2023-05-03T18:00:25.570Z,47.11
2023-05-03T18:02:52.288Z,47.47
2023-05-03T18:05:18.878Z,47.20
2023-05-03T18:07:45.373Z,46.91
2023-05-03T18:10:15.654Z,47.55
2023-05-03T18:12:42.503Z,47.77
2023-05-03T18:15:09.785Z,47.81
2023-05-03T18:17:36.418Z,48.18
2023-05-03T18:20:05.472Z,48.29
2023-05-03T18:22:32.732Z,48.34
2023-05-03T18:25:02.258Z,48.59
2023-05-03T18:27:28.925Z,49.16
2023-05-03T18:29:55.497Z,49.07
2023-05-03T18:32:23.746Z,49.99
2023-05-03T18:34:50.322Z,48.79
2023-05-03T18:37:16.850Z,49.90
2023-05-03T18:39:43.434Z,49.10
2023-05-03T18:42:10.593Z,48.74
2023-05-03T18:44:39.697Z,49.47
2023-05-03T18:47:10.139Z,49.21
2023-05-03T18:49:36.977Z,49.22
2023-05-03T18:52:05.236Z,49.12
2023-05-03T18:54:32.388Z,49.26
2023-05-03T18:57:02.787Z,49.95
2023-05-03T18:59:29.549Z,50.84
2023-05-03T19:01:58.178Z,51.14
2023-05-03T19:04:26.040Z,51.02
2023-05-03T19:06:54.639Z,51.85
2023-05-03T19:09:21.297Z,51.82
2023-05-03T19:11:49.161Z,50.40
2023-05-03T19:14:22.065Z,51.60
2023-05-03T19:16:48.639Z,52.21
2023-05-03T19:19:15.620Z,51.61
2023-05-03T19:21:43.745Z,51.88
2023-05-03T19:24:14.124Z,52.16
2023-05-03T19:26:44.654Z,52.27
2023-05-03T19:29:17.175Z,52.40
2023-05-03T19:31:43.845Z,53.72
2023-05-03T19:34:11.423Z,53.25
2023-05-03T19:36:39.104Z,53.50
2023-05-03T19:39:06.775Z,54.27
2023-05-03T19:41:34.555Z,55.52
2023-05-03T19:44:01.043Z,55.10
2023-05-03T19:46:28.785Z,56.10
2023-05-03T19:49:01.688Z,57.56
2023-05-03T19:51:30.307Z,57.92
2023-05-03T19:53:57.493Z,57.68
2023-05-03T19:56:25.105Z,58.38
2023-05-03T19:58:54.423Z,57.44
2023-05-03T20:01:21.153Z,58.71
2023-05-03T20:03:47.838Z,59.82
2023-05-03T20:06:14.484Z,59.24
2023-05-03T20:08:41.078Z,61.04
2023-05-03T20:11:07.627Z,61.25
2023-05-03T20:13:35.200Z,63.50
2023-05-03T20:16:08.406Z,62.80
2023-05-03T20:18:35.160Z,65.64
2023-05-03T20:21:05.157Z,65.10
2023-05-03T20:23:37.772Z,64.51
2023-05-03T20:26:04.279Z,63.42
2023-05-03T20:28:32.561Z,62.44
2023-05-03T20:30:59.308Z,62.34
2023-05-03T20:33:25.870Z,62.28
2023-05-03T20:35:52.557Z,62.49
2023-05-03T20:38:21.792Z,62.79
2023-05-03T20:40:48.407Z,62.94
2023-05-03T20:43:14.966Z,64.68
2023-05-03T20:45:41.526Z,64.65
2023-05-03T20:48:08.041Z,64.52
2023-05-03T20:50:34.859Z,67.20
2023-05-03T20:53:06.626Z,69.50
2023-05-03T20:55:33.122Z,69.28
2023-05-03T20:57:59.591Z,69.80
2023-05-03T21:00:26.319Z,68.95
2023-05-03T21:02:54.767Z,68.32
2023-05-03T21:05:24.324Z,71.42
2023-05-03T21:07:51.662Z,73.89
2023-05-03T21:10:20.171Z,73.83
2023-05-03T21:12:46.783Z,74.21
2023-05-03T21:15:13.306Z,74.46
2023-05-03T21:17:39.913Z,73.89
2023-05-03T21:20:08.153Z,73.63
2023-05-03T21:22:34.648Z,73.24
2023-05-03T21:25:02.341Z,73.69
2023-05-03T21:27:28.959Z,76.22
2023-05-03T21:29:59.530Z,78.66
2023-05-03T21:32:27.239Z,76.73
2023-05-03T21:34:53.889Z,76.80
2023-05-03T21:37:22.350Z,76.67
2023-05-03T21:40:00.609Z,76.55
2023-05-03T21:42:29.247Z,78.90
2023-05-03T21:44:57.751Z,80.11
2023-05-03T21:47:24.351Z,80.92
2023-05-03T21:49:51.568Z,84.08
2023-05-03T21:52:18.066Z,85.46
2023-05-03T21:54:44.564Z,83.41
2023-05-03T21:57:11.193Z,84.87
2023-05-03T21:59:37.700Z,84.21
2023-05-03T22:02:04.727Z,86.21
2023-05-03T22:04:31.196Z,84.80
2023-05-03T22:06:57.696Z,84.84
2023-05-03T22:09:24.826Z,84.85
2023-05-03T22:11:55.364Z,86.46
2023-05-03T22:14:21.935Z,88.00
2023-05-03T22:16:48.408Z,86.66
2023-05-03T22:19:15.112Z,86.89
2023-05-03T22:21:41.808Z,87.41
2023-05-03T22:24:08.581Z,88.83
2023-05-03T22:26:35.803Z,87.07
2023-05-03T22:29:02.398Z,87.07
2023-05-03T22:31:32.084Z,87.46
2023-05-03T22:34:00.714Z,88.04
2023-05-03T22:36:27.269Z,84.72
2023-05-03T22:38:55.430Z,84.56
2023-05-03T22:41:22.164Z,91.15
2023-05-03T22:43:48.639Z,92.05
2023-05-03T22:46:15.166Z,91.27
2023-05-03T22:48:41.760Z,90.67
2023-05-03T22:51:08.226Z,91.84
2023-05-03T22:53:34.729Z,91.46
2023-05-03T22:56:06.305Z,92.21
2023-05-03T22:58:34.420Z,92.08
2023-05-03T23:01:00.992Z,92.17
2023-05-03T23:03:27.612Z,91.94
2023-05-03T23:06:05.213Z,91.92
2023-05-03T23:08:31.640Z,88.01
2023-05-03T23:10:59.428Z,87.68
2023-05-03T23:13:32.705Z,90.80
2023-05-03T23:15:59.296Z,93.61
2023-05-03T23:18:26.139Z,92.08
2023-05-03T23:20:53.555Z,93.58
2023-05-03T23:23:20.557Z,93.83
2023-05-03T23:25:47.135Z,97.46
2023-05-03T23:28:23.616Z,97.30
2023-05-03T23:30:50.943Z,97.24
2023-05-03T23:33:17.923Z,97.74
2023-05-03T23:35:44.911Z,97.50
2023-05-03T23:38:11.592Z,96.60
2023-05-03T23:40:38.037Z,98.55
2023-05-03T23:43:05.655Z,99.48
2023-05-03T23:45:32.193Z,98.98
2023-05-03T23:47:58.818Z,100.00
2023-05-03T23:50:25.461Z,100.00
2023-05-03T23:52:51.968Z,98.76
2023-05-03T23:55:18.532Z,100.00
2023-05-03T23:57:45.067Z,100.00
